createdAt,value
2018-07-04T00:00:32.329Z,3.60
2018-07-04T00:03:06.104Z,3.50
2018-07-04T00:05:45.788Z,3.50
2018-07-04T00:08:19.845Z,3.27
2018-07-04T00:10:59.469Z,3.40
2018-07-04T00:13:39.284Z,3.00
2018-07-04T00:16:12.827Z,3.53
2018-07-04T00:18:52.779Z,3.40
2018-07-04T00:21:37.152Z,3.70
2018-07-04T00:24:20.891Z,2.87
2018-07-04T00:27:00.615Z,2.97
2018-07-04T00:29:41.593Z,3.20
2018-07-04T00:32:21.086Z,3.37
2018-07-04T00:35:09.543Z,3.33
2018-07-04T00:37:52.484Z,3.47
2018-07-04T00:40:32.220Z,3.33
2018-07-04T00:43:11.735Z,3.53
2018-07-04T00:45:59.139Z,3.80
2018-07-04T00:48:38.862Z,3.13
2018-07-04T00:51:18.660Z,3.60
2018-07-04T00:54:02.176Z,3.23
2018-07-04T00:56:41.979Z,3.70
2018-07-04T00:59:15.620Z,2.97
2018-07-04T01:01:49.583Z,3.50
2018-07-04T01:04:29.323Z,3.40
2018-07-04T01:07:09.111Z,3.50
2018-07-04T01:09:48.656Z,3.50
2018-07-04T01:12:22.538Z,3.50
2018-07-04T01:15:06.202Z,3.43
2018-07-04T01:17:40.143Z,3.40
2018-07-04T01:20:24.020Z,3.47
2018-07-04T01:23:03.872Z,3.50
2018-07-04T01:25:43.591Z,3.80
2018-07-04T01:28:22.821Z,3.73
2018-07-04T01:31:02.542Z,3.30
2018-07-04T01:33:42.292Z,3.60
2018-07-04T01:36:19.764Z,3.27
2018-07-04T01:38:53.678Z,3.27
2018-07-04T01:41:27.447Z,3.30
2018-07-04T01:44:01.399Z,3.67
2018-07-04T01:46:35.303Z,3.40
2018-07-04T01:49:14.880Z,3.57
2018-07-04T01:51:48.567Z,3.70
2018-07-04T01:54:26.230Z,3.53
2018-07-04T01:57:06.312Z,3.20
2018-07-04T01:59:46.279Z,3.83
2018-07-04T02:02:19.953Z,3.63
2018-07-04T02:04:59.981Z,3.77
2018-07-04T02:07:33.635Z,4.07
2018-07-04T02:10:07.480Z,3.73
2018-07-04T02:12:48.455Z,3.63
2018-07-04T02:15:22.006Z,3.93
2018-07-04T02:17:56.408Z,4.17
2018-07-04T02:20:30.414Z,3.93
2018-07-04T02:23:04.495Z,3.40
2018-07-04T02:25:44.140Z,4.40
2018-07-04T02:28:24.795Z,3.83
2018-07-04T02:31:04.315Z,4.00
2018-07-04T02:33:48.036Z,4.20
2018-07-04T02:36:21.589Z,4.10
2018-07-04T02:39:02.472Z,4.03
2018-07-04T02:41:42.307Z,4.13
2018-07-04T02:44:16.590Z,4.30
2018-07-04T02:47:03.521Z,4.40
2018-07-04T02:49:43.139Z,4.50
2018-07-04T02:52:22.759Z,4.57
2018-07-04T02:55:06.288Z,4.50
2018-07-04T02:57:45.888Z,4.23
2018-07-04T03:00:25.645Z,4.27
2018-07-04T03:03:11.734Z,4.50
2018-07-04T03:05:51.864Z,4.70
2018-07-04T03:08:31.388Z,4.90
2018-07-04T03:11:18.130Z,4.07
2018-07-04T03:13:57.884Z,4.23
2018-07-04T03:16:31.902Z,5.93
2018-07-04T03:19:05.541Z,4.60
2018-07-04T03:21:45.516Z,4.43
2018-07-04T03:24:28.851Z,4.17
2018-07-04T03:27:08.612Z,3.90
2018-07-04T03:29:42.489Z,4.10
2018-07-04T03:32:26.403Z,4.07
2018-07-04T03:35:06.176Z,4.13
2018-07-04T03:37:45.976Z,4.30
2018-07-04T03:40:31.981Z,4.13
2018-07-04T03:43:11.934Z,5.70
2018-07-04T03:45:45.540Z,4.40
2018-07-04T03:48:19.496Z,4.63
2018-07-04T03:50:53.187Z,4.63
2018-07-04T03:53:37.152Z,4.67
2018-07-04T03:56:11.124Z,3.70
2018-07-04T03:58:50.737Z,4.13
2018-07-04T04:01:34.067Z,4.10
2018-07-04T04:04:07.797Z,3.67
2018-07-04T04:06:49.275Z,3.80
2018-07-04T04:09:22.831Z,4.40
2018-07-04T04:12:03.124Z,4.03
2018-07-04T04:14:49.855Z,4.87
2018-07-04T04:17:24.027Z,4.10
2018-07-04T04:20:03.643Z,5.07
2018-07-04T04:22:45.639Z,4.53
2018-07-04T04:25:25.173Z,4.07
2018-07-04T04:27:59.139Z,5.60
2018-07-04T04:30:32.833Z,6.00
2018-07-04T04:33:07.827Z,4.97
2018-07-04T04:35:52.199Z,5.20
2018-07-04T04:38:32.188Z,4.80
2018-07-04T04:41:12.743Z,5.77
2018-07-04T04:43:59.273Z,5.20
2018-07-04T04:46:32.899Z,5.20
2018-07-04T04:49:07.092Z,5.50
2018-07-04T04:51:47.677Z,5.57
2018-07-04T04:54:21.560Z,5.43
2018-07-04T04:57:13.486Z,5.30
2018-07-04T04:59:53.238Z,4.77
2018-07-04T05:02:32.773Z,4.97
2018-07-04T05:05:19.595Z,5.00
2018-07-04T05:07:53.485Z,5.17
2018-07-04T05:10:27.601Z,4.90
2018-07-04T05:13:01.224Z,5.47
2018-07-04T05:15:35.409Z,5.30
2018-07-04T05:18:08.996Z,5.80
2018-07-04T05:20:42.739Z,6.30
2018-07-04T05:23:19.982Z,6.27
2018-07-04T05:25:53.691Z,5.50
2018-07-04T05:28:27.796Z,5.30
2018-07-04T05:31:07.680Z,5.67
2018-07-04T05:33:41.530Z,6.13
2018-07-04T05:36:34.035Z,5.73
2018-07-04T05:39:13.863Z,4.80
2018-07-04T05:41:47.483Z,5.63
2018-07-04T05:44:29.666Z,5.60
2018-07-04T05:47:03.285Z,5.70
2018-07-04T05:49:38.737Z,4.87
2018-07-04T05:52:17.178Z,5.10
2018-07-04T05:54:57.221Z,5.62
2018-07-04T05:57:37.196Z,6.50
2018-07-04T06:00:11.062Z,5.10
2018-07-04T06:02:51.126Z,3.98
2018-07-04T06:05:30.987Z,3.55
2018-07-04T06:08:10.839Z,3.72
2018-07-04T06:10:57.250Z,4.22
2018-07-04T06:13:37.228Z,9.68
2018-07-04T06:16:11.232Z,5.00
2018-07-04T06:18:54.389Z,5.62
2018-07-04T06:21:34.317Z,4.87
2018-07-04T06:24:09.600Z,4.58
2018-07-04T06:26:51.415Z,4.65
2018-07-04T06:29:26.513Z,4.87
2018-07-04T06:32:06.296Z,5.37
2018-07-04T06:34:40.316Z,5.20
2018-07-04T06:37:14.231Z,4.70
2018-07-04T06:39:41.843Z,4.22
2018-07-04T06:42:09.236Z,4.87
2018-07-04T06:44:36.847Z,4.65
2018-07-04T06:47:04.741Z,5.78
2018-07-04T06:49:32.315Z,5.25
2018-07-04T06:54:32.038Z,12.47
2018-07-04T06:56:59.328Z,5.20
2018-07-04T06:59:26.964Z,4.60
2018-07-04T07:02:11.131Z,4.12
2018-07-04T07:04:51.949Z,4.25
2018-07-04T07:07:26.024Z,3.90
2018-07-04T07:10:08.123Z,3.75
2018-07-04T07:12:48.221Z,3.50
2018-07-04T07:15:31.780Z,3.77
2018-07-04T07:18:05.907Z,3.45
2018-07-04T07:20:45.741Z,3.65
2018-07-04T07:23:29.018Z,3.55
2018-07-04T07:26:03.255Z,3.20
2018-07-04T07:28:44.056Z,3.15
2018-07-04T07:31:27.163Z,3.55
2018-07-04T07:34:01.129Z,3.37
2018-07-04T07:36:41.146Z,3.87
2018-07-04T07:39:21.506Z,3.60
2018-07-04T07:41:55.210Z,3.90
2018-07-04T07:44:38.792Z,4.00
2018-07-04T07:47:12.533Z,3.95
2018-07-04T07:49:52.941Z,3.62
2018-07-04T07:52:45.406Z,3.95
2018-07-04T07:55:25.227Z,3.30
2018-07-04T07:58:04.964Z,3.70
2018-07-04T08:00:40.559Z,3.37
2018-07-04T08:03:20.276Z,3.60
2018-07-04T08:06:00.386Z,2.85
2018-07-04T08:08:53.403Z,3.30
2018-07-04T08:11:33.163Z,2.90
2018-07-04T08:14:13.396Z,3.27
2018-07-04T08:16:50.692Z,2.87
2018-07-04T08:19:24.731Z,2.58
2018-07-04T08:22:05.857Z,2.90
2018-07-04T08:24:40.010Z,3.00
2018-07-04T08:27:23.227Z,3.20
2018-07-04T08:30:03.189Z,2.90
2018-07-04T08:32:42.845Z,3.22
2018-07-04T08:35:23.180Z,3.00
2018-07-04T08:38:02.911Z,2.90
2018-07-04T08:40:42.733Z,3.10
2018-07-04T08:43:16.411Z,3.75
2018-07-04T08:45:57.163Z,3.55
2018-07-04T08:48:36.920Z,3.33
2018-07-04T08:51:11.317Z,3.30
2018-07-04T08:53:51.556Z,3.75
2018-07-04T08:56:31.314Z,2.87
2018-07-04T08:59:15.868Z,2.85
2018-07-04T09:01:55.351Z,3.33
2018-07-04T09:04:35.205Z,3.08
2018-07-04T09:07:19.223Z,3.52
2018-07-04T09:09:53.168Z,2.67
2018-07-04T09:12:33.989Z,3.00
2018-07-04T09:15:09.198Z,3.67
2018-07-04T09:17:50.598Z,3.58
2018-07-04T09:20:25.021Z,3.50
2018-07-04T09:23:04.718Z,5.60
2018-07-04T09:25:38.736Z,4.70
2018-07-04T09:28:19.248Z,4.30
2018-07-04T09:30:59.310Z,4.30
2018-07-04T09:33:46.857Z,4.20
2018-07-04T09:36:31.384Z,4.42
2018-07-04T09:39:05.349Z,5.00
2018-07-04T09:41:40.707Z,5.22
2018-07-04T09:44:15.443Z,5.17
2018-07-04T09:46:55.102Z,3.62
2018-07-04T09:49:39.293Z,3.47
2018-07-04T09:52:13.123Z,3.40
2018-07-04T09:54:55.333Z,3.55
2018-07-04T09:57:35.372Z,4.83
2018-07-04T10:00:09.706Z,3.70
2018-07-04T10:02:53.088Z,4.78
2018-07-04T10:05:27.184Z,3.60
2018-07-04T10:08:01.508Z,4.42
2018-07-04T10:10:41.508Z,4.87
2018-07-04T10:13:21.270Z,4.05
2018-07-04T10:16:06.792Z,4.12
2018-07-04T10:18:43.103Z,4.05
2018-07-04T10:21:23.099Z,3.62
2018-07-04T10:24:03.987Z,3.50
2018-07-04T10:26:44.565Z,3.77
2018-07-04T10:29:24.605Z,3.52
2018-07-04T10:32:09.041Z,3.47
2018-07-04T10:34:48.860Z,3.30
2018-07-04T10:37:33.315Z,3.95
2018-07-04T10:40:10.687Z,4.60
2018-07-04T10:42:45.909Z,3.70
2018-07-04T10:45:19.643Z,3.60
2018-07-04T10:47:59.541Z,3.72
2018-07-04T10:50:39.603Z,3.47
2018-07-04T10:53:13.811Z,3.98
2018-07-04T10:55:53.456Z,3.15
2018-07-04T10:58:33.524Z,3.98
2018-07-04T11:01:25.966Z,3.80
2018-07-04T11:04:00.227Z,4.03
2018-07-04T11:06:40.161Z,3.67
2018-07-04T11:09:18.382Z,4.65
2018-07-04T11:11:54.231Z,4.70
2018-07-04T11:14:29.397Z,3.80
2018-07-04T11:17:03.615Z,4.10
2018-07-04T11:19:44.252Z,4.17
2018-07-04T11:22:27.844Z,4.62
2018-07-04T11:25:08.164Z,4.53
2018-07-04T11:27:42.480Z,5.30
2018-07-04T11:30:16.480Z,4.62
2018-07-04T11:32:56.272Z,4.03
2018-07-04T11:35:34.224Z,4.05
2018-07-04T11:38:08.079Z,4.87
2018-07-04T11:40:49.241Z,5.50
2018-07-04T11:43:23.735Z,5.30
2018-07-04T11:46:01.707Z,5.15
2018-07-04T11:48:29.121Z,4.60
2018-07-04T11:50:58.699Z,4.80
2018-07-04T11:53:26.333Z,5.33
2018-07-04T11:55:54.094Z,5.47
2018-07-04T11:58:24.560Z,5.05
2018-07-04T12:00:54.315Z,4.58
2018-07-04T12:03:23.676Z,5.12
2018-07-04T12:06:04.130Z,5.17
2018-07-04T12:08:31.509Z,4.97
2018-07-04T12:11:00.692Z,4.40
2018-07-04T12:13:29.083Z,5.35
2018-07-04T12:15:57.963Z,4.60
2018-07-04T12:18:27.312Z,4.50
2018-07-04T12:21:11.317Z,4.50
2018-07-04T12:23:40.893Z,4.83
2018-07-04T12:26:08.666Z,4.10
2018-07-04T12:28:36.779Z,5.62
2018-07-04T12:31:04.153Z,5.50
2018-07-04T12:33:31.554Z,4.33
2018-07-04T12:35:59.218Z,4.70
2018-07-04T12:38:26.576Z,4.70
2018-07-04T12:40:53.948Z,4.80
2018-07-04T12:43:23.678Z,4.97
2018-07-04T12:45:51.136Z,4.97
2018-07-04T12:48:21.091Z,5.25
2018-07-04T12:50:51.778Z,4.97
2018-07-04T12:53:19.183Z,5.10
2018-07-04T12:55:53.718Z,4.72
2018-07-04T12:58:27.618Z,4.22
2018-07-04T13:01:07.373Z,4.70
2018-07-04T13:03:41.495Z,4.12
2018-07-04T13:06:24.570Z,4.00
2018-07-04T13:09:05.032Z,4.50
2018-07-04T13:11:45.560Z,3.87
2018-07-04T13:14:19.374Z,3.55
2018-07-04T13:16:59.016Z,3.67
2018-07-04T13:19:42.341Z,3.40
2018-07-04T13:22:16.060Z,3.77
2018-07-04T13:24:51.591Z,3.83
2018-07-04T13:27:33.760Z,4.00
2018-07-04T13:30:18.847Z,4.17
2018-07-04T13:32:53.111Z,3.33
2018-07-04T13:35:37.996Z,3.40
2018-07-04T13:38:11.739Z,3.42
2018-07-04T13:40:53.626Z,3.50
2018-07-04T13:43:30.088Z,3.60
2018-07-04T13:46:10.279Z,4.10
2018-07-04T13:48:50.807Z,4.20
2018-07-04T13:51:31.380Z,4.08
2018-07-04T13:54:05.187Z,4.08
2018-07-04T13:56:39.571Z,4.60
2018-07-04T13:59:13.397Z,4.30
2018-07-04T14:01:51.340Z,4.37
2018-07-04T14:04:31.699Z,4.58
2018-07-04T14:07:05.994Z,4.55
2018-07-04T14:09:41.535Z,4.67
2018-07-04T14:12:22.330Z,5.20
2018-07-04T14:15:05.265Z,4.70
2018-07-04T14:17:40.219Z,4.30
2018-07-04T14:20:13.887Z,4.60
2018-07-04T14:22:53.856Z,4.60
2018-07-04T14:25:28.007Z,4.78
2018-07-04T14:28:14.530Z,4.60
2018-07-04T14:30:55.170Z,4.08
2018-07-04T14:33:29.089Z,4.22
2018-07-04T14:36:11.583Z,4.60
2018-07-04T14:38:47.444Z,4.67
2018-07-04T14:41:22.598Z,4.75
2018-07-04T14:43:56.307Z,5.95
2018-07-04T14:46:30.123Z,5.03
2018-07-04T14:49:16.093Z,4.87
2018-07-04T14:51:50.476Z,4.65
2018-07-04T14:54:32.553Z,4.75
2018-07-04T14:57:07.010Z,3.80
2018-07-04T14:59:40.555Z,3.75
2018-07-04T15:02:24.658Z,4.20
2018-07-04T15:04:59.360Z,4.00
2018-07-04T15:07:34.540Z,3.40
2018-07-04T15:10:16.428Z,4.12
2018-07-04T15:12:56.395Z,3.37
2018-07-04T15:15:31.463Z,4.55
2018-07-04T15:18:05.283Z,3.67
2018-07-04T15:20:46.572Z,4.12
2018-07-04T15:23:20.704Z,4.35
2018-07-04T15:25:54.640Z,3.72
2018-07-04T15:28:38.692Z,4.55
2018-07-04T15:31:12.564Z,4.22
2018-07-04T15:33:46.799Z,4.60
2018-07-04T15:36:21.355Z,5.12
2018-07-04T15:38:56.441Z,4.30
2018-07-04T15:41:30.108Z,4.50
2018-07-04T15:51:08.841Z,5.15
2018-07-04T15:53:53.221Z,4.75
2018-07-04T15:56:32.951Z,5.10
2018-07-04T15:59:13.156Z,5.42
2018-07-04T16:01:47.103Z,5.12
2018-07-04T16:04:27.176Z,4.95
2018-07-04T16:07:07.051Z,5.50
2018-07-04T16:09:46.948Z,4.90
2018-07-04T16:12:20.588Z,5.33
2018-07-04T16:15:13.272Z,5.28
2018-07-04T16:17:47.039Z,5.17
2018-07-04T16:20:21.296Z,5.55
2018-07-04T16:22:55.227Z,5.60
2018-07-04T16:25:29.023Z,5.25
2018-07-04T16:28:13.276Z,5.40
2018-07-04T16:30:53.132Z,5.42
2018-07-04T16:33:33.089Z,4.75
2018-07-04T16:36:07.592Z,6.12
2018-07-04T16:38:43.105Z,5.92
2018-07-04T16:41:17.370Z,6.20
2018-07-04T16:43:57.012Z,5.55
2018-07-04T16:46:32.287Z,5.28
2018-07-04T16:49:11.981Z,5.40
2018-07-04T16:51:52.377Z,6.90
2018-07-04T16:54:26.968Z,6.92
2018-07-04T16:57:09.096Z,8.18
2018-07-04T16:59:45.124Z,6.47
2018-07-04T17:02:20.800Z,5.28
2018-07-04T17:05:00.674Z,5.17
2018-07-04T17:07:36.842Z,7.28
2018-07-04T17:10:17.178Z,7.67
2018-07-04T17:12:51.698Z,8.28
2018-07-04T17:15:35.152Z,7.62
2018-07-04T17:18:10.204Z,8.03
2018-07-04T17:20:43.842Z,8.05
2018-07-04T17:23:17.548Z,6.97
2018-07-04T17:25:57.512Z,7.65
2018-07-04T17:28:41.548Z,7.17
2018-07-04T17:31:16.599Z,7.65
2018-07-04T17:33:58.732Z,6.97
2018-07-04T17:36:38.872Z,7.00
2018-07-04T17:39:18.753Z,7.25
2018-07-04T17:42:01.195Z,7.05
2018-07-04T17:44:35.180Z,6.90
2018-07-04T17:47:09.912Z,7.30
2018-07-04T17:49:54.430Z,7.08
2018-07-04T17:52:35.936Z,7.95
2018-07-04T17:55:10.274Z,7.42
2018-07-04T17:57:44.315Z,7.53
2018-07-04T18:00:18.283Z,7.53
2018-07-04T18:02:52.570Z,7.40
2018-07-04T18:05:32.401Z,7.35
2018-07-04T18:08:19.184Z,8.63
2018-07-04T18:10:59.404Z,8.43
2018-07-04T18:13:33.546Z,8.60
2018-07-04T18:16:23.686Z,8.00
2018-07-04T18:18:57.689Z,7.33
2018-07-04T18:21:32.470Z,7.65
2018-07-04T18:24:12.741Z,6.47
2018-07-04T18:26:54.066Z,7.42
2018-07-04T18:29:28.587Z,8.15
2018-07-04T18:32:03.158Z,8.13
2018-07-04T18:34:43.028Z,7.95
2018-07-04T18:37:21.004Z,8.10
2018-07-04T18:39:55.337Z,7.35
2018-07-04T18:42:31.592Z,7.83
2018-07-04T18:45:12.449Z,7.47
2018-07-04T18:47:52.105Z,7.90
2018-07-04T18:50:32.456Z,7.28
2018-07-04T18:53:07.184Z,7.20
2018-07-04T18:55:41.159Z,7.58
2018-07-04T18:58:15.004Z,7.30
2018-07-04T19:00:49.189Z,7.83
2018-07-04T19:03:22.942Z,6.95
2018-07-04T19:05:56.876Z,7.65
2018-07-04T19:08:42.060Z,6.40
2018-07-04T19:11:22.665Z,5.90
2018-07-04T19:13:57.171Z,5.95
2018-07-04T19:16:31.389Z,5.85
2018-07-04T19:19:12.112Z,6.03
2018-07-04T19:21:49.683Z,6.40
2018-07-04T19:24:29.279Z,6.22
2018-07-04T19:27:10.470Z,6.90
2018-07-04T19:29:52.452Z,6.40
2018-07-04T19:32:32.240Z,6.40
2018-07-04T19:35:06.384Z,6.62
2018-07-04T19:37:50.736Z,5.92
2018-07-04T19:40:24.668Z,6.65
2018-07-04T19:43:07.262Z,6.42
2018-07-04T19:45:46.969Z,6.17
2018-07-04T19:48:28.376Z,5.60
2018-07-04T19:51:12.418Z,5.67
2018-07-04T19:53:53.182Z,6.35
2018-07-04T19:56:31.106Z,6.47
2018-07-04T19:59:15.367Z,6.10
2018-07-04T20:01:56.268Z,5.87
2018-07-04T20:04:36.024Z,6.85
2018-07-04T20:07:23.071Z,6.37
2018-07-04T20:10:08.791Z,6.78
2018-07-04T20:12:48.667Z,6.50
2018-07-04T20:15:30.233Z,5.37
2018-07-04T20:18:22.588Z,5.60
2018-07-04T20:21:03.145Z,5.23
2018-07-04T20:23:44.404Z,5.10
2018-07-04T20:26:24.244Z,4.85
2018-07-04T20:29:04.857Z,4.80
2018-07-04T20:31:40.792Z,5.03
2018-07-04T20:34:22.485Z,5.00
2018-07-04T20:37:00.266Z,5.20
2018-07-04T20:39:34.502Z,5.90
2018-07-04T20:42:08.729Z,5.43
2018-07-04T20:44:43.596Z,5.47
2018-07-04T20:50:03.848Z,5.40
2018-07-04T20:52:44.166Z,5.57
2018-07-04T20:58:10.082Z,5.37
2018-07-04T21:00:51.680Z,5.07
2018-07-04T21:03:35.980Z,5.40
2018-07-04T21:06:15.915Z,5.07
2018-07-04T21:09:00.356Z,5.00
2018-07-04T21:11:38.559Z,5.80
2018-07-04T21:14:13.968Z,5.53
2018-07-04T21:16:48.001Z,5.60
2018-07-04T21:19:22.200Z,5.50
2018-07-04T21:21:56.523Z,5.33
2018-07-04T21:24:31.543Z,5.50
2018-07-04T21:27:13.165Z,5.80
2018-07-04T21:29:51.474Z,5.50
2018-07-04T21:32:25.675Z,5.93
2018-07-04T21:34:59.592Z,6.23
2018-07-04T21:37:34.465Z,6.43
2018-07-04T21:40:08.203Z,6.13
2018-07-04T21:42:42.732Z,5.73
2018-07-04T21:45:16.484Z,5.87
2018-07-04T21:47:51.171Z,5.67
2018-07-04T21:50:26.307Z,6.57
2018-07-04T21:53:10.112Z,6.33
2018-07-04T21:55:44.441Z,7.17
2018-07-04T21:58:24.318Z,6.53
2018-07-04T22:00:57.855Z,6.30
2018-07-04T22:03:31.815Z,6.80
2018-07-04T22:06:10.422Z,6.37
2018-07-04T22:08:46.152Z,6.77
2018-07-04T22:11:26.190Z,6.50
2018-07-04T22:13:59.999Z,6.80
2018-07-04T22:16:39.684Z,6.93
2018-07-04T22:19:17.083Z,6.60
2018-07-04T22:21:51.146Z,6.87
2018-07-04T22:24:25.664Z,6.57
2018-07-04T22:27:00.603Z,7.37
2018-07-04T22:29:34.558Z,6.43
2018-07-04T22:32:08.183Z,7.60
2018-07-04T22:34:42.191Z,6.50
2018-07-04T22:37:16.218Z,7.40
2018-07-04T22:39:56.418Z,7.03
2018-07-04T22:42:33.015Z,7.57
2018-07-04T22:45:07.588Z,6.93
2018-07-04T22:47:41.468Z,6.87
2018-07-04T22:50:21.072Z,6.70
2018-07-04T22:53:01.573Z,7.30
2018-07-04T22:55:42.103Z,6.87
2018-07-04T22:58:22.071Z,7.23
2018-07-04T23:00:55.774Z,7.87
2018-07-04T23:03:30.783Z,8.20
2018-07-04T23:06:04.555Z,6.70
2018-07-04T23:08:48.441Z,7.33
2018-07-04T23:11:22.611Z,7.00
2018-07-04T23:13:56.601Z,7.60
2018-07-04T23:16:30.400Z,7.13
2018-07-04T23:19:04.064Z,6.77
2018-07-04T23:21:37.795Z,6.77
2018-07-04T23:24:17.739Z,6.57
2018-07-04T23:26:52.057Z,6.43
2018-07-04T23:29:31.812Z,5.67
2018-07-04T23:32:14.580Z,6.00
2018-07-04T23:34:54.463Z,6.70
2018-07-04T23:37:34.105Z,6.60
2018-07-04T23:40:07.719Z,6.37
2018-07-04T23:42:47.676Z,6.60
2018-07-04T23:45:27.170Z,6.43
2018-07-04T23:48:10.666Z,7.40
2018-07-04T23:50:44.552Z,7.20
2018-07-04T23:53:25.432Z,7.10
2018-07-04T23:56:08.551Z,7.20
2018-07-04T23:58:48.347Z,6.73
